Time;durP1;ratioP1;P1;durP2;ratioP2;P2;SDS_P1;SDS_P2;PMS_P1;PMS_P2;Temp;Humidity;BMP_temperature;BMP_pressure;BME280_temperature;BME280_humidity;BME280_pressure;Samples;Min_cycle;Max_cycle;Signal;HPM_P1;HPM_P2
2022/01/04 00:00:09;;;;;;;2.50;0.90;;;8.90;99.90;;;;;;5017497;28;20484;-87
2022/01/04 00:02:35;;;;;;;4.05;1.00;;;8.90;99.90;;;;;;5017357;28;20439;-88
2022/01/04 00:05:01;;;;;;;3.72;1.00;;;8.90;99.90;;;;;;5035587;28;20034;-88
2022/01/04 00:07:27;;;;;;;2.90;0.98;;;8.90;99.90;;;;;;5034987;28;20129;-87
2022/01/04 00:09:53;;;;;;;4.03;1.10;;;8.90;99.90;;;;;;5017358;28;20032;-88
2022/01/04 00:15:04;;;;;;;1.92;0.68;;;8.90;99.90;;;;;;5035461;28;20119;-87
2022/01/04 00:17:30;;;;;;;3.05;1.02;;;8.90;99.90;;;;;;5017320;28;20032;-88
2022/01/04 00:19:56;;;;;;;3.28;1.02;;;8.90;99.90;;;;;;5017446;28;20370;-88
2022/01/04 00:22:21;;;;;;;2.97;0.90;;;8.90;99.90;;;;;;5017191;28;20039;-88
2022/01/04 00:24:47;;;;;;;4.03;0.82;;;8.90;99.90;;;;;;5017274;28;20053;-89
2022/01/04 00:27:13;;;;;;;3.33;1.02;;;8.90;99.90;;;;;;5017185;28;20049;-88
2022/01/04 00:29:39;;;;;;;5.30;1.05;;;8.90;99.90;;;;;;5035348;28;20029;-89
2022/01/04 00:32:05;;;;;;;3.42;0.93;;;8.90;99.90;;;;;;5017267;28;20569;-88
2022/01/04 00:34:31;;;;;;;2.53;0.80;;;8.90;99.90;;;;;;5035090;28;20109;-88
2022/01/04 00:36:57;;;;;;;2.30;1.20;;;8.90;99.90;;;;;;5034610;28;20053;-87
2022/01/04 00:39:22;;;;;;;2.08;0.95;;;8.90;99.90;;;;;;5017756;28;20473;-88
2022/01/04 00:41:48;;;;;;;4.22;0.98;;;8.90;99.90;;;;;;5016866;28;20481;-89
2022/01/04 00:44:14;;;;;;;4.55;1.00;;;8.90;99.90;;;;;;5034431;28;20469;-88
2022/01/04 00:46:39;;;;;;;2.42;1.05;;;8.90;99.90;;;;;;5016981;28;20542;-88
2022/01/04 00:49:11;;;;;;;2.17;1.00;;;8.90;99.90;;;;;;5016618;28;20021;-88
2022/01/04 00:51:47;;;;;;;1.83;1.00;;;8.90;99.90;;;;;;5034808;28;20431;-88
2022/01/04 00:54:13;;;;;;;2.05;1.10;;;8.90;99.90;;;;;;5016743;28;20429;-88
2022/01/04 00:56:40;;;;;;;3.55;1.00;;;8.90;99.90;;;;;;5034103;28;20013;-87
2022/01/04 00:59:06;;;;;;;3.53;1.00;;;9.00;99.90;;;;;;5016685;28;20033;-88
2022/01/04 01:01:35;;;;;;;3.03;0.95;;;8.90;99.90;;;;;;5034081;28;20025;-89
2022/01/04 01:04:01;;;;;;;7.47;1.20;;;8.90;99.90;;;;;;5016558;28;20026;-88
2022/01/04 01:06:27;;;;;;;1.67;0.70;;;8.90;99.90;;;;;;5033762;28;20050;-88
2022/01/04 01:08:53;;;;;;;1.70;0.90;;;8.90;99.90;;;;;;5034048;28;20473;-87
2022/01/04 01:11:19;;;;;;;3.30;1.10;;;8.90;99.90;;;;;;5034252;28;20083;-87
2022/01/04 01:13:46;;;;;;;2.83;1.10;;;8.90;99.90;;;;;;5016041;28;20032;-87
2022/01/04 01:16:12;;;;;;;2.70;1.10;;;8.90;99.90;;;;;;5016053;28;20036;-86
2022/01/04 01:18:38;;;;;;;2.35;1.08;;;8.90;99.90;;;;;;5016007;28;20462;-87
2022/01/04 01:21:05;;;;;;;2.55;1.00;;;8.90;99.90;;;;;;5034022;28;20025;-87
2022/01/04 01:23:32;;;;;;;7.18;0.98;;;8.90;99.90;;;;;;5016088;28;20507;-87
2022/01/04 01:25:58;;;;;;;2.25;1.00;;;8.90;99.90;;;;;;5015932;28;20026;-87
2022/01/04 01:28:24;;;;;;;2.15;0.90;;;8.90;99.90;;;;;;5015976;28;20071;-87
2022/01/04 01:30:50;;;;;;;2.67;0.95;;;8.90;99.90;;;;;;5015903;28;20021;-87
2022/01/04 01:33:17;;;;;;;4.07;1.10;;;8.90;99.90;;;;;;5033404;28;20033;-87
2022/01/04 01:35:44;;;;;;;3.42;1.00;;;8.90;99.90;;;;;;5015759;28;20026;-87
2022/01/04 01:38:11;;;;;;;3.08;1.13;;;8.90;99.90;;;;;;5015698;28;20385;-87
2022/01/04 01:40:37;;;;;;;2.58;1.02;;;8.90;99.90;;;;;;5015560;28;20079;-87
2022/01/04 01:43:04;;;;;;;3.63;1.08;;;8.80;99.90;;;;;;5015658;28;20025;-87
2022/01/04 01:45:30;;;;;;;1.65;0.90;;;8.80;99.90;;;;;;5015479;28;20025;-87
2022/01/04 01:47:56;;;;;;;1.60;1.05;;;8.80;99.90;;;;;;5015611;28;20021;-87
2022/01/04 01:50:22;;;;;;;4.72;1.20;;;8.80;99.90;;;;;;5015571;28;20113;-87
2022/01/04 01:52:49;;;;;;;3.00;1.10;;;8.80;99.90;;;;;;5015584;28;20084;-88
2022/01/04 01:55:18;;;;;;;3.15;1.27;;;8.80;99.90;;;;;;5033264;28;20032;-87
2022/01/04 01:57:44;;;;;;;2.80;1.17;;;8.80;99.90;;;;;;5033702;28;20048;-87
2022/01/04 02:00:13;;;;;;;3.20;1.17;;;8.80;99.90;;;;;;5033175;28;20029;-88
2022/01/04 02:02:40;;;;;;;3.72;1.20;;;8.80;99.90;;;;;;5015513;28;20080;-87
2022/01/04 02:05:06;;;;;;;3.22;1.40;;;8.80;99.90;;;;;;5015472;28;20030;-87
2022/01/04 02:07:33;;;;;;;3.78;1.17;;;8.80;99.90;;;;;;5032609;28;20523;-87
2022/01/04 02:10:03;;;;;;;2.97;1.55;;;8.80;99.90;;;;;;5015448;28;20029;-88
2022/01/04 02:12:40;;;;;;;4.40;1.70;;;8.80;99.90;;;;;;5015639;28;20044;-87
2022/01/04 02:15:10;;;;;;;1.83;1.33;;;8.80;99.90;;;;;;5033110;28;20026;-88
2022/01/04 02:17:36;;;;;;;3.70;1.65;;;8.90;99.90;;;;;;5033355;28;20034;-88
2022/01/04 02:20:03;;;;;;;3.72;1.10;;;8.90;99.90;;;;;;5015609;28;20032;-88
2022/01/04 02:22:31;;;;;;;4.05;1.90;;;9.00;99.90;;;;;;5015224;28;20034;-87
2022/01/04 02:24:57;;;;;;;2.67;1.20;;;9.10;99.90;;;;;;5015171;28;20026;-88
2022/01/04 02:27:23;;;;;;;4.68;1.52;;;9.10;99.90;;;;;;5015201;28;20159;-90
2022/01/04 02:29:49;;;;;;;2.38;1.40;;;9.20;99.90;;;;;;5032856;28;20036;-88
2022/01/04 02:32:15;;;;;;;3.25;1.60;;;9.20;99.90;;;;;;5015286;28;20021;-87
2022/01/04 02:34:46;;;;;;;3.78;1.60;;;9.20;99.90;;;;;;5015265;28;20041;-88
2022/01/04 02:37:12;;;;;;;3.50;1.60;;;9.20;99.90;;;;;;5032869;28;20017;-88
2022/01/04 02:39:38;;;;;;;4.13;1.50;;;9.30;99.90;;;;;;5015133;28;20491;-88
2022/01/04 02:42:05;;;;;;;3.65;1.40;;;9.30;99.90;;;;;;5015099;28;20138;-87
2022/01/04 02:44:32;;;;;;;2.90;1.60;;;9.30;99.90;;;;;;5015193;28;20036;-86
2022/01/04 02:46:58;;;;;;;2.63;1.25;;;9.30;99.90;;;;;;5015253;28;20028;-87
2022/01/04 02:49:24;;;;;;;2.70;1.45;;;9.40;99.90;;;;;;5015127;28;20026;-89
2022/01/04 02:51:49;;;;;;;4.00;1.20;;;9.30;99.90;;;;;;5014921;28;20025;-85
2022/01/04 02:54:15;;;;;;;2.97;1.40;;;9.40;99.90;;;;;;5014985;28;20030;-89
2022/01/04 02:56:41;;;;;;;2.75;1.48;;;9.40;99.90;;;;;;5015027;28;20071;-88
2022/01/04 02:59:06;;;;;;;3.40;1.20;;;9.50;99.90;;;;;;5015020;28;20064;-87
2022/01/04 03:01:32;;;;;;;2.15;1.10;;;9.50;99.90;;;;;;5014949;28;20029;-87
2022/01/04 03:03:59;;;;;;;4.18;1.40;;;9.60;99.90;;;;;;5014958;28;20025;-88
2022/01/04 03:06:25;;;;;;;4.57;1.38;;;9.60;99.90;;;;;;5014668;28;20074;-87
2022/01/04 03:08:50;;;;;;;2.80;1.40;;;9.70;99.90;;;;;;5015034;28;20072;-88
2022/01/04 03:11:16;;;;;;;5.00;1.33;;;9.60;99.90;;;;;;5014822;28;20029;-88
2022/01/04 03:13:42;;;;;;;2.42;1.30;;;9.60;99.90;;;;;;5032455;28;20421;-87
2022/01/04 03:16:08;;;;;;;1.80;1.15;;;9.60;99.90;;;;;;5032831;28;20022;-86
2022/01/04 03:18:35;;;;;;;2.47;1.20;;;9.60;99.90;;;;;;5014664;28;20030;-87
2022/01/04 03:21:01;;;;;;;3.10;1.00;;;9.60;99.90;;;;;;5017063;28;20033;-85
2022/01/04 03:23:27;;;;;;;1.95;1.10;;;9.60;99.90;;;;;;5018165;28;20026;-87
2022/01/04 03:25:52;;;;;;;1.42;1.10;;;9.60;99.90;;;;;;5018305;28;20029;-86
2022/01/04 03:28:20;;;;;;;2.35;1.23;;;9.50;99.90;;;;;;5018187;28;20477;-87
2022/01/04 03:30:46;;;;;;;3.38;1.20;;;9.50;99.90;;;;;;5035844;28;20105;-87
2022/01/04 03:33:12;;;;;;;2.80;1.05;;;9.50;99.90;;;;;;5035209;28;20053;-87
2022/01/04 03:35:38;;;;;;;2.20;1.15;;;9.50;99.90;;;;;;5018344;28;20049;-86
2022/01/04 03:38:04;;;;;;;3.10;1.23;;;9.50;99.90;;;;;;5036225;28;20027;-84
2022/01/04 03:40:29;;;;;;;3.00;1.17;;;9.40;99.90;;;;;;5018329;28;20050;-88
2022/01/04 03:42:55;;;;;;;2.38;1.00;;;9.40;99.90;;;;;;5036150;28;20427;-87
2022/01/04 03:45:21;;;;;;;1.70;0.80;;;9.40;99.90;;;;;;5036360;28;20036;-86
2022/01/04 03:47:47;;;;;;;1.92;0.85;;;9.40;99.90;;;;;;5018445;28;20486;-83
2022/01/04 03:50:12;;;;;;;1.70;1.08;;;9.40;99.90;;;;;;5018210;28;20380;-86
2022/01/04 03:52:40;;;;;;;2.28;0.93;;;9.40;99.90;;;;;;5017997;28;20044;-83
2022/01/04 03:55:07;;;;;;;2.40;1.00;;;9.40;99.90;;;;;;5017894;28;20029;-87
2022/01/04 03:57:35;;;;;;;1.60;0.90;;;9.40;99.90;;;;;;5017995;28;20030;-86
2022/01/04 04:00:03;;;;;;;2.03;1.05;;;9.40;99.90;;;;;;5018035;28;20548;-88
2022/01/04 04:02:29;;;;;;;3.45;1.10;;;9.40;99.90;;;;;;5017584;28;20021;-84
2022/01/04 04:04:55;;;;;;;1.55;1.10;;;9.40;99.90;;;;;;5035813;28;20025;-85
2022/01/04 04:07:20;;;;;;;1.20;0.88;;;9.40;99.90;;;;;;5017796;28;20536;-87
2022/01/04 04:09:46;;;;;;;1.88;0.90;;;9.40;99.90;;;;;;5017612;28;20496;-85
2022/01/04 04:12:13;;;;;;;2.85;0.90;;;9.40;99.90;;;;;;5017719;28;20541;-86
2022/01/04 04:14:40;;;;;;;2.45;1.17;;;9.40;99.90;;;;;;5017957;28;20030;-86
2022/01/04 04:17:06;;;;;;;1.33;0.80;;;9.30;99.90;;;;;;5017590;28;20029;-85
2022/01/04 04:19:31;;;;;;;2.83;1.02;;;9.40;99.90;;;;;;5035725;28;20469;-85
2022/01/04 04:21:57;;;;;;;2.40;1.00;;;9.30;99.90;;;;;;5017559;28;20021;-86
2022/01/04 04:24:23;;;;;;;2.55;0.90;;;9.40;99.90;;;;;;5017738;28;20041;-86
2022/01/04 04:26:48;;;;;;;2.28;0.90;;;9.40;99.90;;;;;;5018151;28;20056;-86
2022/01/04 04:29:14;;;;;;;1.13;0.73;;;9.30;99.90;;;;;;5035872;28;20025;-83
2022/01/04 04:31:40;;;;;;;1.45;0.77;;;9.30;99.90;;;;;;5017623;28;20389;-87
2022/01/04 04:34:05;;;;;;;1.23;0.70;;;9.30;99.90;;;;;;5035177;28;20025;-86
2022/01/04 04:36:31;;;;;;;0.90;0.75;;;9.30;99.90;;;;;;5035224;28;20406;-87
2022/01/04 04:38:57;;;;;;;1.70;1.05;;;9.30;99.90;;;;;;5017609;28;20022;-85
2022/01/04 04:41:23;;;;;;;1.58;0.80;;;9.30;99.90;;;;;;5035032;28;20029;-87
2022/01/04 04:43:54;;;;;;;1.35;0.93;;;9.30;99.90;;;;;;5017356;28;20029;-87
2022/01/04 04:46:22;;;;;;;2.70;1.13;;;9.30;99.90;;;;;;5035525;28;20045;-84
2022/01/04 04:48:48;;;;;;;2.72;1.10;;;9.30;99.90;;;;;;5035062;28;20018;-85
2022/01/04 04:51:14;;;;;;;1.23;0.80;;;9.30;99.90;;;;;;5016980;28;20511;-85
2022/01/04 04:53:39;;;;;;;3.45;1.17;;;9.30;99.90;;;;;;5035468;28;20497;-86
2022/01/04 04:56:06;;;;;;;1.20;0.80;;;9.30;99.90;;;;;;5034763;28;20021;-82
2022/01/04 04:58:31;;;;;;;3.33;1.20;;;9.30;99.90;;;;;;5017277;28;20112;-87
2022/01/04 05:00:57;;;;;;;1.60;0.80;;;9.20;99.90;;;;;;5016987;28;20052;-85
2022/01/04 05:03:23;;;;;;;2.45;1.30;;;9.20;99.90;;;;;;5016875;28;20389;-83
2022/01/04 05:05:49;;;;;;;1.13;0.80;;;9.20;99.90;;;;;;5034366;28;20056;-85
2022/01/04 05:08:14;;;;;;;1.30;1.05;;;9.20;99.90;;;;;;5034118;28;20017;-86
2022/01/04 05:10:42;;;;;;;3.22;0.88;;;9.20;99.90;;;;;;5034575;28;20101;-86
2022/01/04 05:13:07;;;;;;;1.65;1.00;;;9.30;99.90;;;;;;5034514;28;20021;-85
2022/01/04 05:15:34;;;;;;;2.13;1.08;;;9.20;99.90;;;;;;5016546;28;20389;-85
2022/01/04 05:17:59;;;;;;;2.90;0.93;;;9.20;99.90;;;;;;5034543;28;20100;-85
2022/01/04 05:20:25;;;;;;;2.58;1.00;;;9.20;99.90;;;;;;5016640;28;20187;-86
2022/01/04 05:22:51;;;;;;;3.15;0.90;;;9.20;99.90;;;;;;5034458;28;20177;-86
2022/01/04 05:25:17;;;;;;;2.42;0.98;;;9.20;99.90;;;;;;5034276;28;20044;-85
2022/01/04 05:27:42;;;;;;;1.80;0.77;;;9.10;99.90;;;;;;5034944;28;20022;-87
2022/01/04 05:30:08;;;;;;;1.70;0.80;;;9.20;99.90;;;;;;5016435;28;20022;-87
2022/01/04 05:32:34;;;;;;;1.75;0.80;;;9.20;99.90;;;;;;5016481;28;20503;-87
2022/01/04 05:35:00;;;;;;;1.80;0.90;;;9.10;99.90;;;;;;5034693;28;20026;-85
2022/01/04 05:37:26;;;;;;;1.65;1.10;;;9.20;99.90;;;;;;5016245;28;20028;-85
2022/01/04 05:39:51;;;;;;;1.80;0.90;;;9.20;99.90;;;;;;5015883;28;20037;-86
2022/01/04 05:42:17;;;;;;;1.67;0.75;;;9.20;99.90;;;;;;5015885;28;20489;-85
2022/01/04 05:44:43;;;;;;;2.00;0.90;;;9.20;99.90;;;;;;5034168;28;20362;-86
2022/01/04 05:47:09;;;;;;;2.40;0.95;;;9.20;99.90;;;;;;5034180;28;20025;-86
2022/01/04 05:49:35;;;;;;;3.03;0.90;;;9.20;99.90;;;;;;5016390;28;20017;-87
2022/01/04 05:52:01;;;;;;;2.17;1.00;;;9.20;99.90;;;;;;5016594;28;20017;-86
2022/01/04 05:54:26;;;;;;;1.23;0.85;;;9.20;99.90;;;;;;5016742;28;20026;-85
2022/01/04 05:56:52;;;;;;;1.50;0.85;;;9.30;99.90;;;;;;5016317;28;20126;-83
2022/01/04 05:59:18;;;;;;;3.80;0.80;;;9.20;99.90;;;;;;5033975;28;20025;-86
2022/01/04 06:01:43;;;;;;;1.48;0.95;;;9.30;99.90;;;;;;5016112;28;20026;-83
2022/01/04 06:04:11;;;;;;;1.73;0.80;;;9.30;99.90;;;;;;5033958;28;20060;-82
2022/01/04 06:06:40;;;;;;;1.77;0.85;;;9.40;99.90;;;;;;5012590;28;20049;-86
2022/01/04 06:09:07;;;;;;;1.60;0.80;;;9.40;99.90;;;;;;5014376;28;20022;-85
2022/01/04 06:11:55;;;;;;;1.02;0.60;;;9.40;99.90;;;;;;5013691;28;20014;-85
2022/01/04 06:17:23;;;;;;;1.38;0.50;;;9.50;99.90;;;;;;4991713;28;20093;-86
2022/01/04 06:19:49;;;;;;;3.60;1.15;;;9.50;99.90;;;;;;5012722;28;20022;-86
2022/01/04 06:22:15;;;;;;;1.20;0.70;;;9.50;99.90;;;;;;5014290;28;20033;-85
2022/01/04 06:24:40;;;;;;;1.10;0.55;;;9.50;99.90;;;;;;5012370;28;20118;-84
2022/01/04 06:27:10;;;;;;;1.20;0.70;;;9.50;99.90;;;;;;5012464;28;20025;-86
2022/01/04 06:29:38;;;;;;;1.13;0.80;;;9.60;99.90;;;;;;5012913;28;20057;-85
2022/01/04 06:32:05;;;;;;;0.68;0.60;;;9.60;99.90;;;;;;5012708;28;20049;-82
2022/01/04 06:34:31;;;;;;;2.22;0.70;;;9.60;99.90;;;;;;5012376;28;20544;-85
2022/01/04 06:36:57;;;;;;;2.35;0.90;;;9.70;99.90;;;;;;5012247;28;20065;-87
2022/01/04 06:39:23;;;;;;;1.70;0.52;;;9.80;99.90;;;;;;5013587;28;20030;-85
2022/01/04 06:41:49;;;;;;;0.60;0.50;;;9.80;99.90;;;;;;5013538;28;20589;-85
2022/01/04 06:44:14;;;;;;;1.83;0.70;;;9.80;99.90;;;;;;5013744;28;20025;-86
2022/01/04 06:46:45;;;;;;;1.25;0.68;;;9.70;99.90;;;;;;5012112;28;20026;-85
2022/01/04 06:49:14;;;;;;;0.95;0.60;;;9.80;99.90;;;;;;5013871;28;20030;-85
2022/01/04 06:51:41;;;;;;;1.05;0.85;;;9.80;99.90;;;;;;5013926;28;20489;-83
2022/01/04 06:54:08;;;;;;;1.02;0.68;;;9.80;99.90;;;;;;5013181;28;20032;-84
2022/01/04 06:56:34;;;;;;;0.70;0.57;;;9.90;99.90;;;;;;5017629;28;20026;-85
2022/01/04 06:59:00;;;;;;;1.70;0.73;;;9.90;99.90;;;;;;5015581;28;20022;-85
2022/01/04 07:01:26;;;;;;;0.80;0.60;;;9.90;99.90;;;;;;5017302;28;20026;-83
2022/01/04 07:03:52;;;;;;;1.10;0.70;;;9.90;99.90;;;;;;5015883;28;20366;-86
2022/01/04 07:06:18;;;;;;;1.85;0.70;;;9.90;99.90;;;;;;5015549;28;20046;-85
2022/01/04 07:08:43;;;;;;;2.05;0.80;;;9.90;99.90;;;;;;5016223;28;20033;-82
2022/01/04 07:11:09;;;;;;;1.75;0.52;;;9.80;99.90;;;;;;5016245;28;20041;-83
2022/01/04 07:13:35;;;;;;;3.55;0.88;;;9.90;99.90;;;;;;5017400;28;20104;-85
2022/01/04 07:16:01;;;;;;;2.88;0.90;;;10.00;99.90;;;;;;5017772;28;20080;-86
2022/01/04 07:18:27;;;;;;;3.53;0.70;;;9.90;99.90;;;;;;5016046;28;20034;-84
2022/01/04 07:20:53;;;;;;;2.55;0.80;;;10.00;99.90;;;;;;5016168;28;20501;-85
2022/01/04 07:23:19;;;;;;;2.05;0.90;;;10.00;99.90;;;;;;5016888;28;20030;-85
2022/01/04 07:25:45;;;;;;;1.48;0.80;;;10.00;99.90;;;;;;5017211;28;20025;-85
2022/01/04 07:28:10;;;;;;;2.47;0.70;;;10.00;99.90;;;;;;5016926;28;20014;-84
2022/01/04 07:30:36;;;;;;;1.40;0.80;;;10.00;99.90;;;;;;5015391;28;20026;-84
2022/01/04 07:33:02;;;;;;;1.10;0.57;;;10.00;99.90;;;;;;5015443;28;20030;-82
2022/01/04 07:35:28;;;;;;;1.17;0.60;;;10.10;99.90;;;;;;5016841;28;20061;-82
2022/01/04 07:37:54;;;;;;;1.90;0.77;;;10.10;99.90;;;;;;5017017;28;20033;-82
2022/01/04 07:40:20;;;;;;;1.42;0.70;;;10.10;99.90;;;;;;5015343;28;20036;-86
2022/01/04 07:42:47;;;;;;;1.67;0.70;;;10.10;99.90;;;;;;5015420;28;20034;-86
2022/01/04 07:45:13;;;;;;;0.70;0.57;;;10.10;99.90;;;;;;5016562;28;20042;-83
2022/01/04 07:47:41;;;;;;;1.83;0.90;;;10.10;99.90;;;;;;5016767;28;20053;-85
2022/01/04 07:50:08;;;;;;;1.08;0.70;;;10.20;99.90;;;;;;5016755;28;20017;-84
2022/01/04 07:52:34;;;;;;;1.42;0.80;;;10.20;99.90;;;;;;5015173;28;20097;-82
2022/01/04 07:55:01;;;;;;;1.95;0.80;;;10.20;99.90;;;;;;5016966;28;20026;-84
2022/01/04 07:57:26;;;;;;;2.38;0.93;;;10.30;99.90;;;;;;5016320;28;20033;-85
2022/01/04 07:59:52;;;;;;;2.38;0.88;;;10.30;99.90;;;;;;5017596;28;20038;-85
2022/01/04 08:02:18;;;;;;;2.55;0.90;;;10.20;99.90;;;;;;5015071;28;20026;-82
2022/01/04 08:04:44;;;;;;;4.20;0.77;;;10.20;99.90;;;;;;5016135;28;20022;-83
2022/01/04 08:07:09;;;;;;;1.70;0.70;;;10.20;99.90;;;;;;5030078;28;20045;-85
2022/01/04 08:09:35;;;;;;;2.22;0.90;;;10.30;99.90;;;;;;5018625;28;20026;-85
2022/01/04 08:12:01;;;;;;;4.18;0.88;;;10.30;99.90;;;;;;5036852;28;20029;-86
2022/01/04 08:14:27;;;;;;;3.75;1.05;;;10.30;99.90;;;;;;5018671;28;20021;-85
2022/01/04 08:16:53;;;;;;;2.53;0.80;;;10.20;99.90;;;;;;5018668;28;20481;-83
2022/01/04 08:19:19;;;;;;;3.00;1.25;;;10.30;99.90;;;;;;5018094;28;20025;-84
2022/01/04 08:21:45;;;;;;;2.40;0.88;;;10.30;99.90;;;;;;5017728;28;20018;-86
2022/01/04 08:24:10;;;;;;;3.30;1.17;;;10.40;99.90;;;;;;5017989;28;20045;-86
2022/01/04 08:26:36;;;;;;;1.88;0.85;;;10.40;99.90;;;;;;5035500;28;20026;-85
2022/01/04 08:29:02;;;;;;;2.78;0.80;;;10.40;99.90;;;;;;5018645;28;20060;-85
2022/01/04 08:31:28;;;;;;;3.42;0.73;;;10.40;99.90;;;;;;5019749;28;20028;-83
2022/01/04 08:33:54;;;;;;;1.98;0.80;;;10.40;99.90;;;;;;5017838;28;20025;-84
2022/01/04 08:36:21;;;;;;;5.30;0.90;;;10.50;99.90;;;;;;5035944;28;20100;-86
2022/01/04 08:38:47;;;;;;;1.63;0.80;;;10.50;99.90;;;;;;5017120;28;20560;-84
2022/01/04 08:41:13;;;;;;;1.95;0.90;;;10.50;99.90;;;;;;5017451;28;20496;-86
2022/01/04 08:43:39;;;;;;;3.15;1.10;;;10.40;99.90;;;;;;5017345;28;20029;-85
2022/01/04 08:46:05;;;;;;;1.27;0.70;;;10.50;99.90;;;;;;5035634;28;20493;-86
2022/01/04 08:48:30;;;;;;;1.35;0.70;;;10.50;99.90;;;;;;5017592;28;20021;-86
2022/01/04 08:50:56;;;;;;;1.73;0.70;;;10.50;99.90;;;;;;5017965;28;20025;-85
2022/01/04 08:53:22;;;;;;;3.20;0.80;;;10.60;99.90;;;;;;5017353;28;20029;-85
2022/01/04 08:55:47;;;;;;;4.57;0.95;;;10.60;99.90;;;;;;5017961;28;20026;-85
2022/01/04 08:58:14;;;;;;;2.05;1.00;;;10.60;99.90;;;;;;5017316;28;20049;-85
2022/01/04 09:00:40;;;;;;;1.80;0.80;;;10.60;99.90;;;;;;5017221;28;20022;-83
2022/01/04 09:03:05;;;;;;;1.67;0.88;;;10.60;99.90;;;;;;5016857;28;20021;-85
2022/01/04 09:05:31;;;;;;;2.65;0.75;;;10.70;99.90;;;;;;5016914;28;20117;-85
2022/01/04 09:07:57;;;;;;;2.58;0.80;;;10.70;99.90;;;;;;5035034;28;20022;-85
2022/01/04 09:10:24;;;;;;;1.50;0.80;;;10.60;99.90;;;;;;5017393;28;20017;-85
2022/01/04 09:13:01;;;;;;;0.98;0.70;;;10.60;99.90;;;;;;5034768;28;20060;-85
2022/01/04 09:21:03;;;;;;;1.85;1.02;;;10.60;99.90;;;;;;5036385;28;20051;-83
2022/01/04 09:23:29;;;;;;;3.35;0.98;;;10.50;99.90;;;;;;5018530;28;20117;-85
2022/01/04 09:25:55;;;;;;;1.85;0.90;;;10.40;99.90;;;;;;5016958;28;20060;-85
2022/01/04 09:28:22;;;;;;;2.35;1.13;;;10.40;99.90;;;;;;5017030;28;20017;-84
2022/01/04 09:30:51;;;;;;;4.45;0.90;;;10.40;99.90;;;;;;5034732;28;20021;-86
2022/01/04 09:33:18;;;;;;;5.50;0.93;;;10.40;99.90;;;;;;5016401;28;20055;-85
2022/01/04 09:35:44;;;;;;;1.75;1.00;;;10.40;99.90;;;;;;5016393;28;20029;-85
2022/01/04 09:38:11;;;;;;;4.72;1.00;;;10.40;99.90;;;;;;5016579;28;20028;-85
2022/01/04 09:40:38;;;;;;;3.13;1.08;;;10.40;99.90;;;;;;5016440;28;20034;-84
2022/01/04 09:43:05;;;;;;;1.98;0.90;;;10.40;99.90;;;;;;5016633;28;20036;-84
2022/01/04 09:45:31;;;;;;;2.22;0.70;;;10.40;99.90;;;;;;5034240;28;20644;-83
2022/01/04 09:47:57;;;;;;;2.13;0.95;;;10.40;99.90;;;;;;5033914;28;20056;-85
2022/01/04 09:50:23;;;;;;;3.33;0.93;;;10.40;99.90;;;;;;5016247;28;20018;-83
2022/01/04 09:52:49;;;;;;;1.48;0.95;;;10.40;99.90;;;;;;5016147;28;20573;-82
2022/01/04 09:55:16;;;;;;;4.75;0.90;;;10.40;99.90;;;;;;5016062;28;20036;-82
2022/01/04 09:57:44;;;;;;;4.75;1.30;;;10.30;99.90;;;;;;5015996;28;20076;-84
2022/01/04 10:00:15;;;;;;;4.18;1.20;;;10.30;99.90;;;;;;5016082;28;20036;-84
2022/01/04 10:02:42;;;;;;;3.58;1.02;;;10.40;99.90;;;;;;5033999;28;20450;-85
2022/01/04 10:05:18;;;;;;;2.25;1.10;;;10.40;99.90;;;;;;5016476;28;20017;-83
2022/01/04 10:07:45;;;;;;;2.63;1.15;;;10.30;99.90;;;;;;5015027;28;20050;-82
2022/01/04 10:10:13;;;;;;;2.03;1.05;;;10.30;99.90;;;;;;5013541;28;20496;-85
2022/01/04 10:12:49;;;;;;;8.85;1.20;;;10.30;99.90;;;;;;5015500;28;20500;-86
2022/01/04 10:15:30;;;;;;;4.57;2.08;;;10.30;99.90;;;;;;5013413;28;20026;-84
2022/01/04 10:17:56;;;;;;;2.95;1.30;;;10.30;99.90;;;;;;5012917;28;20025;-85
2022/01/04 10:20:23;;;;;;;3.63;1.27;;;10.30;99.90;;;;;;5013143;28;20120;-84
2022/01/04 10:22:50;;;;;;;3.22;1.38;;;10.40;99.90;;;;;;5012826;28;20069;-85
2022/01/04 10:25:19;;;;;;;3.88;1.30;;;10.40;99.90;;;;;;5014166;28;20022;-84
2022/01/04 10:27:52;;;;;;;4.07;1.20;;;10.40;99.90;;;;;;5015374;28;20014;-86
2022/01/04 10:30:39;;;;;;;1.70;1.00;;;10.50;99.90;;;;;;5017444;28;20022;-85
2022/01/04 10:33:09;;;;;;;4.53;1.35;;;10.50;99.90;;;;;;5017078;28;20026;-84
2022/01/04 10:35:43;;;;;;;2.63;1.17;;;10.50;99.90;;;;;;5017516;28;20022;-85
2022/01/04 10:38:22;;;;;;;3.67;1.58;;;10.60;99.90;;;;;;5017884;28;20026;-83
2022/01/04 10:40:49;;;;;;;3.72;1.33;;;10.50;99.90;;;;;;5017020;28;20044;-85
2022/01/04 10:43:18;;;;;;;1.58;0.98;;;10.60;99.90;;;;;;5016131;28;20032;-85
2022/01/04 10:45:44;;;;;;;2.80;1.00;;;10.60;99.90;;;;;;5017518;28;20485;-84
2022/01/04 10:48:16;;;;;;;1.92;1.10;;;10.60;99.90;;;;;;5017982;28;20474;-84
2022/01/04 10:50:45;;;;;;;3.85;1.10;;;10.60;99.90;;;;;;5017115;28;20470;-85
2022/01/04 10:53:26;;;;;;;5.35;1.70;;;10.60;99.90;;;;;;5016812;28;20021;-83
2022/01/04 10:56:01;;;;;;;2.17;1.30;;;10.50;99.90;;;;;;5015436;28;20030;-85
2022/01/04 10:58:30;;;;;;;4.32;1.50;;;10.50;99.90;;;;;;5015889;28;20025;-84
2022/01/04 11:01:00;;;;;;;4.40;1.30;;;10.50;99.90;;;;;;5015318;28;20478;-84
2022/01/04 11:03:32;;;;;;;3.92;1.90;;;10.60;99.90;;;;;;5015715;28;20048;-86
2022/01/04 11:06:09;;;;;;;4.97;1.50;;;10.70;99.90;;;;;;5015841;28;20568;-86
2022/01/04 11:08:35;;;;;;;3.95;1.60;;;10.80;99.90;;;;;;5016722;28;20024;-86
2022/01/04 11:11:01;;;;;;;4.07;1.60;;;10.80;99.90;;;;;;5017484;28;20025;-85
2022/01/04 11:13:27;;;;;;;3.92;1.42;;;10.90;99.90;;;;;;5016042;28;20029;-86
2022/01/04 11:15:53;;;;;;;4.88;1.30;;;10.90;99.90;;;;;;5017491;28;20453;-86
2022/01/04 11:18:19;;;;;;;3.40;1.35;;;10.90;99.90;;;;;;5016310;28;20037;-86
2022/01/04 11:20:45;;;;;;;1.98;1.13;;;10.80;99.90;;;;;;5016560;28;20026;-86
2022/01/04 11:23:13;;;;;;;2.45;1.40;;;10.80;99.90;;;;;;5015819;28;20033;-87
2022/01/04 11:25:43;;;;;;;8.77;1.42;;;10.90;99.90;;;;;;5015838;28;20025;-87
2022/01/04 11:28:11;;;;;;;2.10;1.30;;;10.90;99.90;;;;;;5016839;28;20454;-86
2022/01/04 11:31:05;;;;;;;3.70;1.60;;;10.80;99.90;;;;;;5016649;28;20021;-83
2022/01/04 11:34:11;;;;;;;5.05;1.50;;;10.80;99.90;;;;;;5016669;28;20113;-84
2022/01/04 11:36:43;;;;;;;5.90;1.92;;;10.70;99.90;;;;;;5016635;28;20389;-87
2022/01/04 11:39:36;;;;;;;7.60;2.40;;;10.70;99.90;;;;;;5015472;28;20539;-86
2022/01/04 11:42:35;;;;;;;5.45;2.33;;;10.70;99.90;;;;;;5015050;28;20022;-87
2022/01/04 11:45:01;;;;;;;3.85;1.95;;;10.70;99.90;;;;;;5015291;28;20026;-86
2022/01/04 11:47:29;;;;;;;4.20;2.20;;;10.60;99.90;;;;;;5014892;28;20030;-85
2022/01/04 11:50:18;;;;;;;3.40;2.20;;;10.60;99.90;;;;;;5014943;28;20115;-87
2022/01/04 11:52:46;;;;;;;7.60;3.20;;;10.70;99.90;;;;;;5016495;28;20036;-87
2022/01/04 11:55:24;;;;;;;4.40;2.45;;;10.80;99.90;;;;;;5016537;28;20052;-86
2022/01/04 11:57:52;;;;;;;6.15;2.20;;;10.70;99.90;;;;;;5016273;28;20101;-86
2022/01/04 12:00:30;;;;;;;3.53;1.77;;;10.70;99.90;;;;;;5014707;28;20029;-87
2022/01/04 12:03:03;;;;;;;5.28;2.13;;;10.70;99.90;;;;;;5016001;28;20556;-86
2022/01/04 12:05:30;;;;;;;3.10;1.48;;;10.70;99.90;;;;;;5015030;28;20072;-83
2022/01/04 12:07:58;;;;;;;3.20;1.63;;;10.70;99.90;;;;;;5035994;28;20386;-86
2022/01/04 12:10:25;;;;;;;4.80;1.55;;;10.80;99.90;;;;;;5035590;28;20018;-83
2022/01/04 12:13:16;;;;;;;4.55;1.65;;;10.70;99.90;;;;;;5035764;28;20033;-86
2022/01/04 12:16:06;;;;;;;4.65;1.80;;;10.70;99.90;;;;;;5035721;28;20041;-86
2022/01/04 12:18:35;;;;;;;4.05;1.95;;;10.70;99.90;;;;;;5018806;28;20060;-85
2022/01/04 12:21:03;;;;;;;3.97;1.63;;;10.70;99.90;;;;;;5018455;28;20029;-85
2022/01/04 12:23:29;;;;;;;3.75;1.55;;;10.70;99.90;;;;;;5035917;28;20029;-86
2022/01/04 12:26:04;;;;;;;4.60;1.73;;;10.70;99.90;;;;;;5018109;28;20091;-86
2022/01/04 12:28:34;;;;;;;8.13;2.08;;;10.60;99.90;;;;;;5017519;28;20064;-84
2022/01/04 12:31:19;;;;;;;5.35;1.98;;;10.60;99.90;;;;;;5034695;28;20026;-85
2022/01/04 12:33:50;;;;;;;5.70;1.30;;;10.60;99.90;;;;;;5035188;28;20028;-86
2022/01/04 12:36:27;;;;;;;6.25;1.60;;;10.60;99.90;;;;;;5016941;28;20036;-85
2022/01/04 12:38:54;;;;;;;2.38;1.42;;;10.60;99.90;;;;;;5016775;28;20029;-86
2022/01/04 12:41:21;;;;;;;4.78;1.85;;;10.60;99.90;;;;;;5016894;28;20116;-85
2022/01/04 12:43:49;;;;;;;2.47;1.40;;;10.60;99.90;;;;;;5035143;28;20411;-87
2022/01/04 12:46:25;;;;;;;4.75;1.55;;;10.60;99.90;;;;;;5017075;28;20105;-86
2022/01/04 12:48:56;;;;;;;2.33;1.20;;;10.60;99.90;;;;;;5017724;28;20395;-86
2022/01/04 12:51:33;;;;;;;4.78;1.65;;;10.50;99.90;;;;;;5034920;28;20250;-87
2022/01/04 12:54:03;;;;;;;5.72;1.80;;;10.60;99.90;;;;;;5034818;28;20074;-85
2022/01/04 12:56:30;;;;;;;1.95;1.27;;;10.50;99.90;;;;;;5034738;28;20100;-86
2022/01/04 12:58:56;;;;;;;6.53;2.22;;;10.50;99.90;;;;;;5034545;28;20025;-86
2022/01/04 13:01:29;;;;;;;6.20;2.42;;;10.40;99.90;;;;;;5034005;28;20519;-83
2022/01/04 13:03:57;;;;;;;6.00;1.83;;;10.40;99.90;;;;;;5017167;28;20037;-85
2022/01/04 13:06:23;;;;;;;5.72;2.13;;;10.40;99.90;;;;;;5013354;28;20053;-86